createdAt,value
2023-03-29T00:02:30.495Z,31.80
2023-03-29T00:04:34.230Z,23.98
2023-03-29T00:06:36.477Z,24.40
2023-03-29T00:08:38.983Z,25.83
2023-03-29T00:10:41.375Z,26.50
2023-03-29T00:12:43.276Z,22.38
2023-03-29T00:14:45.352Z,28.75
2023-03-29T00:16:47.456Z,20.13
2023-03-29T00:18:49.302Z,13.32
2023-03-29T00:20:57.774Z,14.70
2023-03-29T00:22:59.829Z,13.18
2023-03-29T00:25:01.664Z,12.20
2023-03-29T00:27:03.602Z,19.23
2023-03-29T00:29:05.416Z,16.90
2023-03-29T00:31:12.452Z,24.90
2023-03-29T00:33:14.937Z,18.77
2023-03-29T00:35:17.263Z,15.65
2023-03-29T00:37:19.209Z,14.02
2023-03-29T00:39:21.228Z,16.25
2023-03-29T00:41:23.094Z,17.58
2023-03-29T00:43:24.980Z,19.38
2023-03-29T00:45:30.484Z,16.35
2023-03-29T00:47:37.597Z,20.08
2023-03-29T00:49:39.631Z,15.02
2023-03-29T00:51:41.553Z,13.88
2023-03-29T00:53:48.411Z,16.55
2023-03-29T00:55:58.364Z,17.60
2023-03-29T00:58:01.060Z,11.95
2023-03-29T01:00:04.959Z,13.07
2023-03-29T01:02:07.301Z,19.17
2023-03-29T01:04:42.651Z,11.63
2023-03-29T01:07:18.597Z,10.40
2023-03-29T01:09:21.125Z,14.35
2023-03-29T01:11:28.386Z,11.23
2023-03-29T01:13:41.390Z,13.13
2023-03-29T01:15:44.029Z,13.63
2023-03-29T01:17:50.512Z,8.95
2023-03-29T01:19:58.384Z,15.82
2023-03-29T01:22:03.948Z,9.95
2023-03-29T01:24:25.438Z,8.45
2023-03-29T01:26:31.870Z,9.85
2023-03-29T01:28:39.350Z,13.27
2023-03-29T01:30:45.620Z,12.05
2023-03-29T01:33:12.634Z,9.35
2023-03-29T01:35:32.756Z,12.38
2023-03-29T01:37:58.469Z,16.70
2023-03-29T01:40:00.944Z,11.10
2023-03-29T01:42:21.110Z,10.60
2023-03-29T01:44:35.441Z,13.40
2023-03-29T01:46:50.228Z,12.38
2023-03-29T01:48:59.599Z,11.60
2023-03-29T01:51:07.611Z,12.52
2023-03-29T01:53:22.406Z,12.25
2023-03-29T01:55:35.053Z,10.50
2023-03-29T01:57:37.195Z,15.48
2023-03-29T01:59:40.686Z,14.63
2023-03-29T02:01:49.417Z,10.15
2023-03-29T02:03:54.832Z,11.75
2023-03-29T02:05:57.514Z,12.63
2023-03-29T02:08:00.326Z,9.25
2023-03-29T02:10:02.244Z,10.07
2023-03-29T02:12:04.405Z,14.32
2023-03-29T02:14:06.512Z,10.48
2023-03-29T02:16:12.613Z,12.25
2023-03-29T02:18:17.818Z,11.27
2023-03-29T02:20:26.676Z,20.77
2023-03-29T02:22:36.775Z,9.93
2023-03-29T02:24:39.109Z,16.30
2023-03-29T02:26:40.942Z,17.13
2023-03-29T02:28:42.814Z,11.32
2023-03-29T02:31:14.821Z,14.68
2023-03-29T02:33:18.517Z,13.70
2023-03-29T02:35:36.472Z,13.48
2023-03-29T02:37:41.059Z,14.07
2023-03-29T02:39:42.947Z,11.85
2023-03-29T02:41:47.212Z,13.88
2023-03-29T02:43:49.084Z,10.75
2023-03-29T02:45:51.119Z,16.27
2023-03-29T02:47:55.183Z,12.75
2023-03-29T02:49:57.029Z,16.95
2023-03-29T02:52:01.583Z,11.00
2023-03-29T02:54:09.496Z,13.88
2023-03-29T02:56:11.290Z,16.05
2023-03-29T02:58:15.517Z,13.63
2023-03-29T03:00:19.772Z,9.82
2023-03-29T03:02:21.683Z,11.43
2023-03-29T03:04:23.538Z,9.32
2023-03-29T03:06:25.489Z,13.50
2023-03-29T03:08:27.554Z,13.85
2023-03-29T03:10:29.376Z,19.60
2023-03-29T03:12:31.402Z,16.75
2023-03-29T03:14:33.318Z,18.65
2023-03-29T03:16:35.335Z,15.25
2023-03-29T03:18:38.013Z,27.00
2023-03-29T03:20:40.229Z,15.40
2023-03-29T03:22:43.222Z,21.85
2023-03-29T03:24:46.186Z,21.20
2023-03-29T03:26:48.258Z,19.38
2023-03-29T03:28:50.107Z,26.25
2023-03-29T03:30:51.986Z,22.15
2023-03-29T03:32:54.983Z,31.52
2023-03-29T03:34:56.893Z,38.17
2023-03-29T03:37:01.784Z,49.85
2023-03-29T03:39:07.201Z,76.60
2023-03-29T03:41:09.172Z,57.97
2023-03-29T03:43:11.081Z,30.35
2023-03-29T03:45:13.150Z,27.33
2023-03-29T03:47:15.101Z,26.58
2023-03-29T03:49:16.925Z,27.20
2023-03-29T03:51:18.804Z,28.83
2023-03-29T03:53:21.271Z,40.00
2023-03-29T03:55:24.046Z,31.58
2023-03-29T03:57:26.073Z,31.42
2023-03-29T03:59:27.979Z,22.58
2023-03-29T04:01:29.813Z,21.90
2023-03-29T04:03:31.980Z,31.40
2023-03-29T04:05:34.004Z,28.45
2023-03-29T04:07:35.923Z,32.78
2023-03-29T04:09:39.016Z,28.52
2023-03-29T04:11:41.014Z,26.13
2023-03-29T04:13:42.982Z,31.50
2023-03-29T04:15:46.222Z,21.90
2023-03-29T04:17:48.136Z,26.50
2023-03-29T04:19:50.042Z,26.27
2023-03-29T04:21:52.600Z,30.10
2023-03-29T04:25:59.463Z,26.48
2023-03-29T04:28:01.427Z,25.65
2023-03-29T04:30:04.069Z,24.27
2023-03-29T04:32:06.003Z,22.88
2023-03-29T04:34:08.399Z,23.88
2023-03-29T04:36:10.507Z,22.58
2023-03-29T04:38:12.433Z,24.95
2023-03-29T04:40:15.001Z,26.17
2023-03-29T04:42:17.142Z,27.33
2023-03-29T04:44:19.017Z,31.75
2023-03-29T04:46:20.887Z,25.02
2023-03-29T04:48:22.711Z,25.70
2023-03-29T04:50:24.524Z,31.67
2023-03-29T04:52:27.306Z,27.38
2023-03-29T04:54:29.244Z,26.17
2023-03-29T04:56:31.141Z,27.80
2023-03-29T04:58:33.319Z,33.97
2023-03-29T05:00:35.386Z,38.25
2023-03-29T05:02:37.321Z,32.92
2023-03-29T05:04:39.345Z,32.60
2023-03-29T05:06:41.446Z,100.50
2023-03-29T05:08:43.398Z,41.40
2023-03-29T05:10:45.593Z,34.28
2023-03-29T05:12:47.546Z,33.67
2023-03-29T05:14:49.402Z,31.75
2023-03-29T05:16:52.152Z,29.70
2023-03-29T05:18:55.441Z,28.17
2023-03-29T05:20:58.057Z,33.63
2023-03-29T05:23:00.519Z,25.17
2023-03-29T05:25:02.465Z,30.27
2023-03-29T05:27:05.183Z,29.23
2023-03-29T05:29:09.050Z,31.15
2023-03-29T05:31:10.945Z,26.08
2023-03-29T05:33:12.860Z,44.38
2023-03-29T05:35:15.456Z,39.17
2023-03-29T05:39:19.671Z,47.25
2023-03-29T05:41:21.501Z,38.53
2023-03-29T05:43:23.497Z,34.15
2023-03-29T05:45:28.536Z,35.78
2023-03-29T05:47:30.448Z,44.30
2023-03-29T05:49:32.821Z,33.63
2023-03-29T05:51:35.441Z,37.10
2023-03-29T05:53:37.891Z,38.03
2023-03-29T05:55:39.713Z,47.03
2023-03-29T05:57:41.569Z,48.53
2023-03-29T05:59:43.478Z,38.78
2023-03-29T06:01:48.045Z,39.33
2023-03-29T06:03:50.501Z,44.40
2023-03-29T06:08:01.896Z,47.90
2023-03-29T06:12:07.378Z,41.67
2023-03-29T06:16:11.146Z,38.70
2023-03-29T06:18:13.045Z,41.78
2023-03-29T06:20:15.113Z,39.47
2023-03-29T06:22:17.213Z,42.33
2023-03-29T06:24:19.107Z,36.83
2023-03-29T06:26:20.991Z,30.67
2023-03-29T06:28:23.990Z,35.75
2023-03-29T06:30:26.009Z,35.03
2023-03-29T06:32:28.157Z,37.00
2023-03-29T06:34:30.023Z,30.58
2023-03-29T06:36:34.433Z,36.28
2023-03-29T06:38:36.385Z,30.90
2023-03-29T06:40:38.287Z,34.03
2023-03-29T06:42:40.119Z,34.53
2023-03-29T06:44:42.136Z,33.13
2023-03-29T06:46:44.185Z,20.60
2023-03-29T06:48:46.141Z,26.23
2023-03-29T06:50:48.770Z,31.90
2023-03-29T06:54:52.426Z,25.23
2023-03-29T06:56:54.318Z,30.58
2023-03-29T06:58:56.876Z,23.90
2023-03-29T07:03:08.285Z,18.05
2023-03-29T07:05:13.564Z,16.00
2023-03-29T07:07:22.224Z,15.77
2023-03-29T07:09:26.299Z,17.67
2023-03-29T07:11:29.115Z,9.25
2023-03-29T07:13:33.125Z,11.68
2023-03-29T07:15:35.648Z,16.00
2023-03-29T07:17:37.707Z,9.02
2023-03-29T07:19:40.329Z,12.05
2023-03-29T07:21:42.201Z,16.85
2023-03-29T07:23:44.068Z,8.48
2023-03-29T07:25:47.027Z,15.35
2023-03-29T07:27:49.193Z,14.10
2023-03-29T07:29:51.517Z,14.95
2023-03-29T07:31:53.347Z,13.10
2023-03-29T07:33:56.137Z,12.75
2023-03-29T07:35:59.268Z,15.18
2023-03-29T07:38:01.274Z,14.10
2023-03-29T07:40:09.265Z,19.30
2023-03-29T07:42:11.161Z,16.17
2023-03-29T07:44:13.778Z,13.73
2023-03-29T07:48:17.939Z,13.45
2023-03-29T07:50:19.769Z,16.75
2023-03-29T07:52:21.940Z,13.60
2023-03-29T07:54:23.965Z,11.95
2023-03-29T07:56:26.557Z,14.75
2023-03-29T07:58:29.589Z,12.50
2023-03-29T08:00:32.741Z,12.05
2023-03-29T08:02:34.567Z,10.88
2023-03-29T08:04:36.694Z,17.25
2023-03-29T08:06:38.745Z,12.45
2023-03-29T08:08:40.699Z,14.10
2023-03-29T08:10:42.767Z,14.35
2023-03-29T08:12:45.826Z,13.88
2023-03-29T08:14:47.976Z,14.23
2023-03-29T08:16:51.684Z,18.42
2023-03-29T08:18:53.502Z,15.02
2023-03-29T08:20:55.367Z,10.48
2023-03-29T08:22:57.246Z,13.05
2023-03-29T08:24:59.096Z,8.68
2023-03-29T08:27:01.000Z,19.88
2023-03-29T08:29:02.870Z,7.43
2023-03-29T08:31:04.971Z,9.23
2023-03-29T08:33:07.007Z,10.30
2023-03-29T08:35:09.757Z,7.83
2023-03-29T08:39:13.505Z,8.38
2023-03-29T08:41:41.519Z,10.90
2023-03-29T08:43:56.425Z,12.25
2023-03-29T08:46:12.526Z,9.95
2023-03-29T08:48:19.985Z,9.10
2023-03-29T08:50:22.743Z,8.43
2023-03-29T08:52:36.784Z,9.35
2023-03-29T08:54:43.711Z,7.35
2023-03-29T08:56:46.989Z,6.97
2023-03-29T08:58:48.993Z,6.82
2023-03-29T09:00:54.529Z,3.85
2023-03-29T09:02:57.585Z,5.38
2023-03-29T09:05:25.092Z,5.05
2023-03-29T09:07:27.443Z,6.30
2023-03-29T09:09:34.498Z,5.15
2023-03-29T09:12:13.941Z,6.53
2023-03-29T09:14:31.426Z,12.38
2023-03-29T09:17:00.698Z,5.93
2023-03-29T09:19:30.014Z,7.65
2023-03-29T09:21:35.586Z,7.35
2023-03-29T09:23:54.126Z,6.40
2023-03-29T09:26:09.936Z,7.40
2023-03-29T09:28:37.119Z,8.20
2023-03-29T09:30:53.002Z,7.30
2023-03-29T09:33:00.874Z,6.32
2023-03-29T09:35:18.252Z,7.22
2023-03-29T09:37:32.224Z,5.57
2023-03-29T09:39:34.035Z,8.18
2023-03-29T09:41:40.302Z,6.80
2023-03-29T09:43:42.469Z,8.25
2023-03-29T09:45:44.960Z,8.40
2023-03-29T09:47:46.950Z,11.07
2023-03-29T09:49:50.764Z,7.38
2023-03-29T09:51:52.875Z,7.88
2023-03-29T09:53:58.070Z,7.20
2023-03-29T09:56:00.077Z,6.95
2023-03-29T09:58:07.508Z,6.80
2023-03-29T10:00:10.834Z,7.57
2023-03-29T10:02:13.220Z,8.40
2023-03-29T10:04:15.175Z,8.80
2023-03-29T10:06:17.210Z,9.75
2023-03-29T10:08:23.019Z,7.80
2023-03-29T10:10:30.049Z,6.38
2023-03-29T10:12:33.493Z,7.32
2023-03-29T10:14:42.819Z,7.10
2023-03-29T10:16:46.365Z,6.90
2023-03-29T10:18:50.333Z,5.97
2023-03-29T10:20:52.189Z,9.40
2023-03-29T10:22:58.355Z,6.65
2023-03-29T10:25:00.323Z,6.95
2023-03-29T10:27:10.605Z,6.35
2023-03-29T10:29:12.475Z,8.38
2023-03-29T10:31:18.393Z,12.35
2023-03-29T10:33:21.913Z,8.55
2023-03-29T10:35:41.638Z,7.88
2023-03-29T10:37:44.349Z,6.40
2023-03-29T10:39:49.480Z,6.05
2023-03-29T10:41:52.887Z,5.70
2023-03-29T10:43:54.755Z,6.90
2023-03-29T10:45:57.594Z,6.70
2023-03-29T10:47:59.559Z,6.85
2023-03-29T10:50:01.991Z,5.25
2023-03-29T10:54:06.916Z,6.00
2023-03-29T10:56:21.244Z,5.70
2023-03-29T10:58:32.004Z,4.95
2023-03-29T11:00:54.993Z,4.35
2023-03-29T11:03:25.237Z,5.28
2023-03-29T11:05:36.889Z,5.38
2023-03-29T11:08:02.489Z,5.28
2023-03-29T11:10:24.905Z,4.78
2023-03-29T11:13:04.495Z,4.55
2023-03-29T11:15:19.220Z,5.47
2023-03-29T11:17:40.173Z,5.60
2023-03-29T11:19:47.947Z,6.35
2023-03-29T11:22:15.009Z,8.25
2023-03-29T11:24:42.410Z,6.68
2023-03-29T11:26:53.723Z,11.75
2023-03-29T11:29:04.679Z,5.95
2023-03-29T11:31:13.404Z,4.95
2023-03-29T11:33:24.319Z,6.50
2023-03-29T11:35:35.150Z,6.20
2023-03-29T11:38:00.974Z,4.40
2023-03-29T11:40:12.048Z,6.03
2023-03-29T11:42:18.167Z,5.93
2023-03-29T11:44:22.787Z,7.97
2023-03-29T11:46:24.592Z,4.28
2023-03-29T11:48:48.300Z,4.72
2023-03-29T11:51:01.254Z,11.43
2023-03-29T11:53:09.099Z,7.80
2023-03-29T11:55:19.080Z,4.35
2023-03-29T11:57:51.398Z,4.90
2023-03-29T12:00:07.430Z,9.47
2023-03-29T12:02:17.999Z,4.68
2023-03-29T12:04:44.865Z,4.55
2023-03-29T12:07:24.782Z,5.35
2023-03-29T12:09:36.777Z,4.97
2023-03-29T12:11:40.700Z,4.67
2023-03-29T12:13:50.181Z,7.03
2023-03-29T12:15:56.872Z,5.05
2023-03-29T12:18:18.713Z,8.15
2023-03-29T12:20:27.149Z,7.68
2023-03-29T12:22:29.086Z,4.68
2023-03-29T12:24:31.942Z,4.28
2023-03-29T12:27:12.502Z,8.60
2023-03-29T12:29:29.179Z,5.82
2023-03-29T12:32:05.603Z,10.07
2023-03-29T12:34:15.709Z,8.13
2023-03-29T12:36:31.986Z,11.48
2023-03-29T12:38:33.835Z,9.48
2023-03-29T12:40:42.845Z,11.63
2023-03-29T12:42:46.289Z,4.57
2023-03-29T12:44:58.795Z,6.20
2023-03-29T12:47:00.674Z,3.95
2023-03-29T12:49:25.242Z,8.23
2023-03-29T12:51:32.353Z,5.80
2023-03-29T12:53:36.083Z,5.53
2023-03-29T12:55:43.735Z,9.68
2023-03-29T12:58:04.719Z,5.28
2023-03-29T13:00:42.775Z,6.80
2023-03-29T13:02:45.887Z,8.07
2023-03-29T13:04:57.241Z,4.93
2023-03-29T13:07:03.928Z,7.05
2023-03-29T13:09:29.833Z,5.45
2023-03-29T13:11:37.781Z,5.50
2023-03-29T13:13:40.452Z,4.40
2023-03-29T13:18:06.413Z,6.20
2023-03-29T13:20:20.752Z,5.25
2023-03-29T13:22:31.280Z,6.05
2023-03-29T13:24:51.285Z,4.65
2023-03-29T13:27:14.328Z,7.25
2023-03-29T13:29:47.909Z,4.90
2023-03-29T13:32:17.099Z,6.22
2023-03-29T13:34:31.104Z,8.35
2023-03-29T13:37:07.803Z,5.78
2023-03-29T13:39:19.898Z,6.93
2023-03-29T13:41:46.620Z,6.83
2023-03-29T13:43:54.872Z,7.63
2023-03-29T13:45:56.703Z,6.47
2023-03-29T13:48:20.945Z,9.30
2023-03-29T13:50:34.279Z,8.30
2023-03-29T13:53:05.263Z,8.55
2023-03-29T13:55:17.996Z,7.63
2023-03-29T13:57:21.868Z,9.95
2023-03-29T13:59:43.541Z,9.27
2023-03-29T14:01:54.691Z,10.90
2023-03-29T14:03:56.800Z,5.28
2023-03-29T14:06:00.477Z,8.50
2023-03-29T14:08:23.907Z,13.10
2023-03-29T14:12:37.389Z,8.25
2023-03-29T14:14:57.699Z,8.23
2023-03-29T14:17:00.633Z,7.90
2023-03-29T14:19:07.098Z,8.38
2023-03-29T14:21:11.176Z,11.15
2023-03-29T14:23:16.191Z,8.98
2023-03-29T14:25:18.755Z,7.85
2023-03-29T14:27:21.402Z,8.43
2023-03-29T14:29:25.030Z,12.48
2023-03-29T14:31:30.597Z,9.20
2023-03-29T14:33:38.075Z,10.10
2023-03-29T14:35:40.586Z,9.90
2023-03-29T14:37:42.726Z,9.95
2023-03-29T14:39:44.693Z,9.82
2023-03-29T14:41:53.845Z,9.63
2023-03-29T14:43:56.535Z,9.10
2023-03-29T14:48:00.734Z,10.35
2023-03-29T14:50:04.029Z,9.02
2023-03-29T14:52:05.873Z,10.57
2023-03-29T14:54:07.780Z,8.70
2023-03-29T14:56:13.594Z,8.05
2023-03-29T14:58:20.836Z,8.40
2023-03-29T15:00:28.264Z,12.32
2023-03-29T15:02:33.855Z,13.10
2023-03-29T15:04:36.014Z,9.90
2023-03-29T15:06:41.835Z,10.75
2023-03-29T15:08:54.112Z,8.77
2023-03-29T15:11:10.081Z,8.80
2023-03-29T15:13:16.447Z,8.10
2023-03-29T15:15:18.357Z,9.13
2023-03-29T15:17:43.137Z,13.40
2023-03-29T15:19:53.646Z,13.43
2023-03-29T15:21:55.676Z,10.43
2023-03-29T15:23:58.478Z,12.93
2023-03-29T15:28:31.411Z,9.57
2023-03-29T15:30:46.363Z,6.82
2023-03-29T15:32:53.600Z,8.70
2023-03-29T15:34:59.631Z,19.85
2023-03-29T15:37:01.672Z,9.07
2023-03-29T15:39:03.652Z,10.63
2023-03-29T15:41:06.685Z,9.07
2023-03-29T15:43:08.657Z,13.10
2023-03-29T15:45:14.853Z,13.30
2023-03-29T15:47:16.949Z,13.00
2023-03-29T15:49:18.792Z,13.48
2023-03-29T15:51:20.670Z,11.40
2023-03-29T15:53:23.761Z,10.13
2023-03-29T15:55:29.618Z,10.05
2023-03-29T15:57:31.523Z,8.10
2023-03-29T15:59:33.700Z,10.32
2023-03-29T16:01:37.786Z,13.05
2023-03-29T16:03:40.090Z,13.27
2023-03-29T16:05:43.398Z,9.30
2023-03-29T16:07:45.441Z,9.95
2023-03-29T16:09:47.648Z,11.75
2023-03-29T16:11:49.754Z,11.95
2023-03-29T16:13:51.662Z,10.70
2023-03-29T16:15:53.614Z,14.20
2023-03-29T16:17:55.696Z,9.27
2023-03-29T16:19:57.520Z,11.43
2023-03-29T16:22:00.280Z,15.80
2023-03-29T16:26:05.195Z,14.60
2023-03-29T16:28:08.045Z,13.05
2023-03-29T16:30:10.845Z,13.35
2023-03-29T16:34:14.661Z,11.25
2023-03-29T16:36:16.932Z,10.50
2023-03-29T16:38:18.867Z,10.05
2023-03-29T16:40:21.216Z,14.33
2023-03-29T16:42:23.078Z,10.65
2023-03-29T16:44:27.642Z,11.75
2023-03-29T16:46:29.706Z,13.32
2023-03-29T16:48:31.594Z,12.95
2023-03-29T16:50:33.633Z,8.70
2023-03-29T16:52:35.471Z,11.20
2023-03-29T16:54:37.288Z,10.20
2023-03-29T16:56:39.130Z,10.50
2023-03-29T16:58:41.463Z,13.60
2023-03-29T17:00:46.376Z,14.82
2023-03-29T17:02:50.129Z,12.65
2023-03-29T17:04:52.133Z,11.00
2023-03-29T17:06:54.024Z,13.38
2023-03-29T17:08:55.895Z,14.97
2023-03-29T17:10:57.758Z,15.80
2023-03-29T17:12:59.596Z,14.75
2023-03-29T17:15:01.492Z,11.43
2023-03-29T17:17:03.344Z,13.17
2023-03-29T17:19:05.155Z,20.07
2023-03-29T17:21:07.429Z,17.48
2023-03-29T17:23:09.332Z,16.48
2023-03-29T17:25:11.295Z,17.15
2023-03-29T17:27:13.101Z,11.80
2023-03-29T17:29:14.934Z,13.17
2023-03-29T17:31:18.258Z,17.13
2023-03-29T17:33:26.081Z,12.23
2023-03-29T17:35:28.392Z,11.88
2023-03-29T17:37:30.195Z,12.02
2023-03-29T17:39:32.207Z,15.30
2023-03-29T17:41:34.035Z,11.85
2023-03-29T17:43:35.863Z,11.47
2023-03-29T17:45:37.743Z,13.13
2023-03-29T17:47:39.638Z,12.70
2023-03-29T17:49:41.728Z,16.37
2023-03-29T17:51:43.579Z,17.08
2023-03-29T17:53:46.533Z,14.33
2023-03-29T17:55:48.431Z,15.32
2023-03-29T17:57:50.474Z,17.63
2023-03-29T17:59:52.384Z,15.48
2023-03-29T18:01:54.333Z,15.60
2023-03-29T18:03:56.272Z,19.80
2023-03-29T18:05:58.615Z,17.65
2023-03-29T18:08:00.680Z,17.58
2023-03-29T18:10:02.617Z,14.70
2023-03-29T18:12:04.659Z,22.92
2023-03-29T18:14:07.533Z,17.23
2023-03-29T18:16:09.897Z,19.75
2023-03-29T18:18:11.804Z,17.23
2023-03-29T18:20:13.886Z,16.53
2023-03-29T18:22:15.697Z,14.93
2023-03-29T18:24:17.568Z,17.17
2023-03-29T18:26:19.429Z,16.53
2023-03-29T18:28:21.566Z,19.40
2023-03-29T18:30:23.481Z,23.70
2023-03-29T18:32:25.612Z,19.38
2023-03-29T18:34:27.857Z,17.55
2023-03-29T18:36:30.470Z,18.40
2023-03-29T18:38:36.202Z,18.20
2023-03-29T18:40:39.152Z,20.88
2023-03-29T18:42:41.119Z,18.42
2023-03-29T18:44:42.936Z,20.95
2023-03-29T18:46:44.833Z,19.13
2023-03-29T18:48:46.757Z,16.60
2023-03-29T18:50:48.937Z,19.40
2023-03-29T18:52:50.922Z,22.52
2023-03-29T18:54:54.940Z,20.52
2023-03-29T18:56:59.165Z,17.23
2023-03-29T18:59:05.183Z,16.98
2023-03-29T19:01:07.351Z,21.25
2023-03-29T19:03:09.567Z,19.25
2023-03-29T19:05:11.594Z,19.90
2023-03-29T19:07:13.447Z,25.17
2023-03-29T19:09:15.394Z,23.40
2023-03-29T19:11:17.218Z,28.33
2023-03-29T19:13:19.096Z,24.23
2023-03-29T19:15:20.958Z,23.67
2023-03-29T19:17:22.859Z,21.33
2023-03-29T19:19:26.376Z,21.92
2023-03-29T19:21:29.036Z,20.95
2023-03-29T19:25:32.620Z,28.42
2023-03-29T19:27:34.534Z,30.20
2023-03-29T19:29:36.738Z,24.10
2023-03-29T19:31:38.805Z,26.60
2023-03-29T19:33:40.958Z,32.72
2023-03-29T19:35:43.154Z,22.95
2023-03-29T19:37:44.993Z,26.48
2023-03-29T19:39:47.032Z,26.05
2023-03-29T19:41:48.837Z,27.02
2023-03-29T19:43:50.791Z,25.83
2023-03-29T19:45:52.720Z,25.88
2023-03-29T19:47:55.566Z,26.98
2023-03-29T19:49:58.578Z,25.50
2023-03-29T19:52:00.625Z,24.80
2023-03-29T19:54:02.860Z,25.35
2023-03-29T19:56:05.021Z,29.65
2023-03-29T19:58:07.272Z,37.55
2023-03-29T20:00:14.217Z,27.50
2023-03-29T20:02:16.098Z,30.50
2023-03-29T20:04:22.822Z,31.92
2023-03-29T20:06:24.887Z,22.35
2023-03-29T20:08:26.792Z,26.48
2023-03-29T20:10:28.593Z,29.88
2023-03-29T20:12:30.422Z,29.10
2023-03-29T20:14:32.397Z,27.80
2023-03-29T20:16:34.885Z,25.40
2023-03-29T20:18:39.573Z,31.52
2023-03-29T20:20:41.494Z,30.25
2023-03-29T20:22:45.472Z,26.10
2023-03-29T20:24:47.383Z,28.67
2023-03-29T20:26:49.241Z,26.33
2023-03-29T20:28:51.148Z,33.80
2023-03-29T20:30:53.306Z,25.40
2023-03-29T20:32:55.299Z,29.65
2023-03-29T20:34:57.128Z,30.67
2023-03-29T20:37:00.994Z,32.20
2023-03-29T20:39:02.992Z,26.83
2023-03-29T20:41:05.318Z,27.65
2023-03-29T20:43:13.218Z,25.05
2023-03-29T20:45:18.572Z,27.13
2023-03-29T20:47:20.733Z,27.52
2023-03-29T20:49:26.538Z,25.70
2023-03-29T20:51:30.430Z,25.80
2023-03-29T20:53:34.329Z,28.52
2023-03-29T20:55:39.169Z,30.60
2023-03-29T20:57:42.296Z,30.88
2023-03-29T20:59:44.395Z,28.67
2023-03-29T21:01:47.199Z,27.33
2023-03-29T21:03:49.197Z,28.20
2023-03-29T21:05:54.202Z,33.83
2023-03-29T21:07:57.042Z,29.63
2023-03-29T21:10:01.176Z,24.50
2023-03-29T21:12:03.216Z,25.67
2023-03-29T21:14:05.134Z,25.80
2023-03-29T21:16:07.395Z,26.33
2023-03-29T21:18:09.361Z,23.15
2023-03-29T21:20:12.069Z,28.13
2023-03-29T21:24:15.804Z,32.38
2023-03-29T21:26:17.647Z,30.33
2023-03-29T21:28:19.465Z,29.25
2023-03-29T21:30:21.278Z,26.37
2023-03-29T21:32:23.161Z,25.93
2023-03-29T21:34:25.089Z,29.90
2023-03-29T21:36:27.017Z,27.90
2023-03-29T21:38:28.925Z,29.88
2023-03-29T21:40:30.882Z,31.30
2023-03-29T21:42:35.455Z,24.75
2023-03-29T21:44:37.289Z,28.65
2023-03-29T21:46:39.189Z,30.83
2023-03-29T21:48:41.916Z,21.65
2023-03-29T21:52:45.506Z,24.63
2023-03-29T21:54:47.362Z,28.45
2023-03-29T21:56:49.199Z,28.45
2023-03-29T21:58:51.050Z,27.92
2023-03-29T22:00:53.254Z,29.05
2023-03-29T22:02:55.346Z,25.05
2023-03-29T22:04:57.177Z,31.65
2023-03-29T22:06:59.001Z,25.77
2023-03-29T22:09:00.892Z,32.33
2023-03-29T22:11:08.191Z,26.10
2023-03-29T22:13:10.302Z,27.67
2023-03-29T22:15:12.665Z,22.80
2023-03-29T22:17:15.985Z,24.88
2023-03-29T22:19:17.856Z,30.25
2023-03-29T22:21:22.654Z,27.52
2023-03-29T22:23:24.977Z,28.90
2023-03-29T22:25:27.146Z,27.00
2023-03-29T22:27:29.024Z,26.92
2023-03-29T22:29:30.858Z,26.05
2023-03-29T22:31:32.862Z,24.80
2023-03-29T22:33:35.005Z,29.63
2023-03-29T22:35:36.906Z,22.05
2023-03-29T22:37:42.868Z,25.95
2023-03-29T22:39:44.676Z,26.08
2023-03-29T22:41:46.825Z,24.33
2023-03-29T22:43:48.661Z,24.45
2023-03-29T22:45:50.555Z,24.27
2023-03-29T22:47:52.452Z,23.52
2023-03-29T22:49:54.314Z,24.75
2023-03-29T22:51:56.240Z,22.77
2023-03-29T22:53:58.136Z,29.63
2023-03-29T22:56:00.027Z,27.55
2023-03-29T22:58:01.848Z,30.88
2023-03-29T23:00:09.146Z,26.00
2023-03-29T23:02:11.741Z,29.33
2023-03-29T23:04:13.760Z,28.73
2023-03-29T23:06:15.666Z,31.65
2023-03-29T23:08:17.623Z,26.77
2023-03-29T23:10:19.541Z,23.20
2023-03-29T23:12:24.205Z,24.52
2023-03-29T23:14:26.112Z,25.33
2023-03-29T23:16:28.018Z,24.02
2023-03-29T23:18:30.467Z,24.38
2023-03-29T23:20:32.663Z,29.55
2023-03-29T23:22:36.366Z,28.67
2023-03-29T23:24:38.264Z,20.48
2023-03-29T23:26:40.083Z,23.77
2023-03-29T23:28:42.354Z,25.90
2023-03-29T23:30:44.285Z,26.73
2023-03-29T23:32:46.933Z,21.33
2023-03-29T23:36:50.544Z,22.60
2023-03-29T23:38:52.459Z,23.40
2023-03-29T23:41:00.452Z,23.90
2023-03-29T23:43:04.197Z,23.50
2023-03-29T23:45:07.706Z,25.45
2023-03-29T23:47:09.548Z,25.73
2023-03-29T23:49:11.424Z,23.30
2023-03-29T23:51:13.373Z,26.23
2023-03-29T23:53:16.073Z,19.77
2023-03-29T23:57:19.773Z,25.17
2023-03-29T23:59:26.887Z,23.88
